createdAt,value
2023-05-21T00:00:24.486Z,14.40
2023-05-21T00:05:47.479Z,18.80
2023-05-21T00:10:50.474Z,17.70
2023-05-21T00:15:53.447Z,16.30
2023-05-21T00:20:56.296Z,16.70
2023-05-21T00:26:00.205Z,16.80
2023-05-21T00:31:03.174Z,14.10
2023-05-21T00:36:06.482Z,14.70
2023-05-21T00:41:11.049Z,14.40
2023-05-21T00:46:21.059Z,14.70
2023-05-21T00:51:24.926Z,14.10
2023-05-21T00:56:28.043Z,14.30
2023-05-21T01:01:34.145Z,15.00
2023-05-21T01:06:37.948Z,15.10
2023-05-21T01:11:50.117Z,13.50
2023-05-21T01:16:53.797Z,13.00
2023-05-21T01:22:06.024Z,12.90
2023-05-21T01:27:10.737Z,13.40
2023-05-21T01:32:25.826Z,13.10
2023-05-21T01:38:13.997Z,14.00
2023-05-21T01:43:19.669Z,13.30
2023-05-21T01:48:27.368Z,13.50
2023-05-21T01:53:30.688Z,12.90
2023-05-21T01:58:33.655Z,13.20
2023-05-21T02:03:36.848Z,13.50
2023-05-21T02:08:40.468Z,12.70
2023-05-21T02:13:43.505Z,14.30
2023-05-21T02:18:47.117Z,13.40
2023-05-21T02:23:50.066Z,13.00
2023-05-21T02:28:54.348Z,12.90
2023-05-21T02:33:58.264Z,13.10
2023-05-21T02:39:01.955Z,12.80
2023-05-21T02:44:05.002Z,12.60
2023-05-21T02:49:07.941Z,11.40
2023-05-21T02:54:10.954Z,11.80
2023-05-21T02:59:13.994Z,11.00
2023-05-21T03:04:21.951Z,11.30
2023-05-21T03:09:24.801Z,10.10
2023-05-21T03:14:29.034Z,9.10
2023-05-21T03:19:36.560Z,8.60
2023-05-21T03:24:39.987Z,8.10
2023-05-21T03:29:43.393Z,8.00
2023-05-21T03:34:46.280Z,7.20
2023-05-21T03:39:49.136Z,7.90
2023-05-21T03:44:51.962Z,7.30
2023-05-21T03:49:55.108Z,6.90
2023-05-21T03:54:58.060Z,7.20
2023-05-21T04:00:00.976Z,7.00
2023-05-21T04:05:04.260Z,7.20
2023-05-21T04:10:08.113Z,6.50
2023-05-21T04:15:11.313Z,5.30
2023-05-21T04:20:17.138Z,5.40
2023-05-21T04:25:21.994Z,5.60
2023-05-21T04:30:24.977Z,4.60
2023-05-21T04:35:27.879Z,5.20
2023-05-21T04:40:30.874Z,4.20
2023-05-21T04:45:33.962Z,5.00
2023-05-21T04:50:37.027Z,4.10
2023-05-21T04:55:40.301Z,4.00
2023-05-21T05:00:46.205Z,4.30
2023-05-21T05:05:49.141Z,4.50
2023-05-21T05:10:52.136Z,4.40
2023-05-21T05:15:55.119Z,3.50
2023-05-21T05:20:58.030Z,3.40
2023-05-21T05:26:01.001Z,3.00
2023-05-21T05:31:04.063Z,2.80
2023-05-21T05:36:07.488Z,3.10
2023-05-21T05:41:10.413Z,3.20
2023-05-21T05:46:13.362Z,3.30
2023-05-21T05:51:17.245Z,3.50
2023-05-21T05:56:20.152Z,3.10
2023-05-21T06:01:24.893Z,2.90
2023-05-21T06:06:28.281Z,2.90
2023-05-21T06:11:31.231Z,2.40
2023-05-21T06:16:34.389Z,2.80
2023-05-21T06:21:37.446Z,2.40
2023-05-21T06:26:40.414Z,2.20
2023-05-21T06:31:44.214Z,2.30
2023-05-21T06:36:48.782Z,2.50
2023-05-21T06:41:51.819Z,2.30
2023-05-21T06:46:54.957Z,2.40
2023-05-21T06:51:58.005Z,2.40
2023-05-21T06:57:01.843Z,2.30
2023-05-21T07:02:05.144Z,2.00
2023-05-21T07:07:08.076Z,2.10
2023-05-21T07:12:11.002Z,2.20
2023-05-21T07:17:14.044Z,1.80
2023-05-21T07:22:17.025Z,1.90
2023-05-21T07:32:29.393Z,1.80
2023-05-21T07:37:33.078Z,1.90
2023-05-21T07:42:36.174Z,1.60
2023-05-21T07:47:40.419Z,1.70
2023-05-21T07:52:43.633Z,1.70
2023-05-21T07:57:46.611Z,1.80
2023-05-21T08:02:49.703Z,1.80
2023-05-21T08:07:52.823Z,2.00
2023-05-21T08:12:56.022Z,1.60
2023-05-21T08:17:59.639Z,1.90
2023-05-21T08:23:03.032Z,1.60
2023-05-21T08:28:07.453Z,1.60
2023-05-21T08:33:11.720Z,1.30
2023-05-21T08:38:17.353Z,1.70
2023-05-21T08:43:21.139Z,1.40
2023-05-21T08:48:25.121Z,1.60
2023-05-21T08:53:29.192Z,1.30
2023-05-21T08:58:33.882Z,1.60
2023-05-21T09:03:41.187Z,1.40
2023-05-21T09:08:47.162Z,1.40
2023-05-21T09:13:52.550Z,1.80
2023-05-21T09:18:55.521Z,1.70
2023-05-21T09:24:00.117Z,1.70
2023-05-21T09:29:03.985Z,2.50
2023-05-21T09:34:07.118Z,1.40
2023-05-21T09:39:12.267Z,1.30
2023-05-21T09:44:15.457Z,1.10
2023-05-21T09:49:26.766Z,1.30
2023-05-21T09:54:35.721Z,1.40
2023-05-21T09:59:39.968Z,1.50
2023-05-21T10:04:44.927Z,0.90
2023-05-21T10:09:49.334Z,1.30
2023-05-21T10:15:01.471Z,1.20
2023-05-21T10:20:07.733Z,1.10
2023-05-21T10:25:13.760Z,1.20
2023-05-21T10:30:18.694Z,1.50
2023-05-21T10:35:23.275Z,1.00
2023-05-21T10:40:26.553Z,1.40
2023-05-21T10:45:58.067Z,1.40
2023-05-21T10:51:56.730Z,1.40
2023-05-21T10:57:43.544Z,1.10
2023-05-21T11:02:50.194Z,1.50
2023-05-21T11:07:57.791Z,1.40
2023-05-21T11:13:16.454Z,1.40
2023-05-21T11:18:20.920Z,1.40
2023-05-21T11:23:51.499Z,1.40
2023-05-21T11:29:08.676Z,1.30
2023-05-21T11:34:28.844Z,1.20
2023-05-21T11:39:40.481Z,1.60
2023-05-21T11:44:47.669Z,1.70
2023-05-21T11:49:50.590Z,1.10
2023-05-21T11:54:56.891Z,1.40
2023-05-21T12:00:02.293Z,1.40
2023-05-21T12:05:06.822Z,1.40
2023-05-21T12:10:10.804Z,1.40
2023-05-21T12:15:14.060Z,1.80
2023-05-21T12:20:17.256Z,1.50
2023-05-21T12:25:21.370Z,1.50
2023-05-21T12:30:26.283Z,1.60
2023-05-21T12:35:31.660Z,1.90
2023-05-21T12:40:40.807Z,1.80
2023-05-21T12:45:44.634Z,1.30
2023-05-21T12:50:47.636Z,1.50
2023-05-21T12:55:50.936Z,1.50
2023-05-21T13:00:56.657Z,1.50
2023-05-21T13:06:01.758Z,1.70
2023-05-21T13:11:05.271Z,2.00
2023-05-21T13:16:08.580Z,1.70
2023-05-21T13:21:11.619Z,1.80
2023-05-21T13:26:14.578Z,1.60
2023-05-21T13:31:17.776Z,1.50
2023-05-21T13:36:20.903Z,1.50
2023-05-21T13:41:23.938Z,1.60
2023-05-21T13:46:27.147Z,1.80
2023-05-21T13:51:38.519Z,1.60
2023-05-21T13:56:42.351Z,1.70
2023-05-21T14:01:46.021Z,1.50
2023-05-21T14:06:49.058Z,1.40
2023-05-21T14:11:52.018Z,1.80
2023-05-21T14:16:55.025Z,2.00
2023-05-21T14:21:59.977Z,1.60
2023-05-21T14:27:02.917Z,1.50
2023-05-21T14:32:06.650Z,1.70
2023-05-21T14:37:09.594Z,1.60
2023-05-21T14:42:12.540Z,1.30
2023-05-21T14:47:15.702Z,1.30
2023-05-21T14:52:18.640Z,1.60
2023-05-21T14:57:21.560Z,1.30
2023-05-21T15:02:24.649Z,1.70
2023-05-21T15:07:27.797Z,1.50
2023-05-21T15:12:30.853Z,1.30
2023-05-21T15:17:35.316Z,1.70
2023-05-21T15:22:38.442Z,1.60
2023-05-21T15:27:41.412Z,1.70
2023-05-21T15:32:44.310Z,1.50
2023-05-21T15:37:47.193Z,1.80
2023-05-21T15:42:50.279Z,1.80
2023-05-21T15:47:53.335Z,1.60
2023-05-21T15:52:56.368Z,1.60
2023-05-21T15:58:02.048Z,1.90
2023-05-21T16:03:05.578Z,1.70
2023-05-21T16:08:10.826Z,1.90
2023-05-21T16:13:13.754Z,1.60
2023-05-21T16:18:16.631Z,1.60
2023-05-21T16:23:19.712Z,1.70
2023-05-21T16:28:24.510Z,1.80
2023-05-21T16:33:27.553Z,1.80
2023-05-21T16:38:31.458Z,1.50
2023-05-21T16:43:34.700Z,2.00
2023-05-21T16:48:39.404Z,2.20
2023-05-21T16:53:42.322Z,1.70
2023-05-21T16:58:45.186Z,1.70
2023-05-21T17:03:48.174Z,2.10
2023-05-21T17:08:51.439Z,1.50
2023-05-21T17:13:54.287Z,1.80
2023-05-21T17:18:57.246Z,1.50
2023-05-21T17:24:00.686Z,1.50
2023-05-21T17:29:03.735Z,1.60
2023-05-21T17:34:06.982Z,1.60
2023-05-21T17:39:10.602Z,1.70
2023-05-21T17:44:17.335Z,1.50
2023-05-21T17:49:20.847Z,2.10
2023-05-21T17:54:23.736Z,1.70
2023-05-21T17:59:26.770Z,1.60
2023-05-21T18:04:29.745Z,1.60
2023-05-21T18:09:32.824Z,1.50
2023-05-21T18:14:35.839Z,1.60
2023-05-21T18:19:38.786Z,2.00
2023-05-21T18:24:41.780Z,2.00
2023-05-21T18:29:45.049Z,1.60
2023-05-21T18:34:48.546Z,1.80
2023-05-21T18:39:51.504Z,1.60
2023-05-21T18:44:54.454Z,1.80
2023-05-21T18:49:57.423Z,2.60
2023-05-21T18:55:00.795Z,3.00
2023-05-21T19:00:09.903Z,2.40
2023-05-21T19:05:13.235Z,2.60
2023-05-21T19:10:16.346Z,2.10
2023-05-21T19:15:19.494Z,2.30
2023-05-21T19:20:27.268Z,1.90
2023-05-21T19:25:31.889Z,2.00
2023-05-21T19:30:36.705Z,2.50
2023-05-21T19:35:41.675Z,2.10
2023-05-21T19:40:45.110Z,2.30
2023-05-21T19:45:48.486Z,2.60
2023-05-21T19:50:51.710Z,2.80
2023-05-21T19:55:55.020Z,2.30
2023-05-21T20:00:59.431Z,2.30
2023-05-21T20:06:03.482Z,2.00
2023-05-21T20:11:06.638Z,2.20
2023-05-21T20:16:10.706Z,11.30
2023-05-21T20:21:17.646Z,10.10
2023-05-21T20:26:22.029Z,5.40
2023-05-21T20:31:25.671Z,6.00
2023-05-21T20:36:30.667Z,3.40
2023-05-21T20:41:37.943Z,3.50
2023-05-21T20:46:41.237Z,2.90
2023-05-21T20:51:44.740Z,3.10
2023-05-21T20:56:50.880Z,3.10
2023-05-21T21:01:54.206Z,3.10
2023-05-21T21:06:57.298Z,2.60
2023-05-21T21:12:06.148Z,3.10
2023-05-21T21:17:12.056Z,3.40
2023-05-21T21:22:16.644Z,3.30
2023-05-21T21:27:19.671Z,3.40
2023-05-21T21:32:22.778Z,3.00
2023-05-21T21:37:25.859Z,3.10
2023-05-21T21:42:28.849Z,4.30
2023-05-21T21:47:31.947Z,4.50
2023-05-21T21:52:40.032Z,5.60
2023-05-21T21:57:43.192Z,6.00
2023-05-21T22:02:48.938Z,4.40
2023-05-21T22:07:52.209Z,3.80
2023-05-21T22:12:55.263Z,4.10
2023-05-21T22:18:01.023Z,4.10
2023-05-21T22:23:04.452Z,4.50
2023-05-21T22:28:07.379Z,5.10
2023-05-21T22:33:11.533Z,4.40
2023-05-21T22:38:14.510Z,4.10
2023-05-21T22:43:17.665Z,3.80
2023-05-21T22:48:22.144Z,3.60
2023-05-21T22:53:25.925Z,3.60
2023-05-21T22:58:29.080Z,4.30
2023-05-21T23:03:32.246Z,3.70
2023-05-21T23:08:38.258Z,3.70
2023-05-21T23:13:43.910Z,3.30
2023-05-21T23:18:47.907Z,3.60
2023-05-21T23:23:50.921Z,3.60
2023-05-21T23:28:56.921Z,4.40
2023-05-21T23:34:01.827Z,4.30
2023-05-21T23:39:04.780Z,4.70
2023-05-21T23:44:07.931Z,4.50
2023-05-21T23:49:11.812Z,4.40
2023-05-21T23:54:17.105Z,5.10
2023-05-21T23:59:20.474Z,6.90
